24h
KLIENDITUGI:
Saartelennuliinid: +372 58856336 (24/7)
Estairi piletikassa lennujaamas:
+372 6058887; +372 55603687

03.12.2018 hommikune Transaviabaltika lend KTB670 Tallinn - Kärdla ja KTB671 Kärdla – Tallinn väljalend jääb ära. Lennu ära jäämise põhjustab ilmastikuolu Kärdla lennuväljal. Reisijatele võimaldatakse tasuta lennupileti ümberbroneerimine reisija soovi kohasele mõnele teisele Tallinn-Kärdla või Kärdla-Tallinn lennule. Reisijatele kes ei soovi lennupileti ümberbroneerimist teisele lennule tagastatakse piletiraha. Oma soovist tuleb teada anda e-mailile [email protected] Lisainformatsioon telefonil 58856336.

EEKA Kärdla lennuväli

FCEO32 EETN 030400 CCA

TAF COR EEKA 030405Z 0305/0311 14014KT 4000 BR OVC004

TEMPO 0305/0309 1200 SNRA BR OVC002 PROB40

TEMPO 0305/0309 14016G29KT FZDZ=

METAR EEKA 030350Z 14014KT 1600 FZFG VV002 M01/// Q1002=
Kuupäev: 
03/12/2018